createdAt,value
2022-10-28T00:01:24.383Z,99986.22
2022-10-28T00:03:58.538Z,99982.78
2022-10-28T00:06:35.296Z,99986.50
2022-10-28T00:09:05.753Z,99988.97
2022-10-28T00:11:35.891Z,99991.91
2022-10-28T00:14:06.705Z,99978.97
2022-10-28T00:16:37.845Z,99974.84
2022-10-28T00:19:08.536Z,99980.84
2022-10-28T00:21:38.134Z,99984.91
2022-10-28T00:24:07.699Z,99995.00
2022-10-28T00:26:38.214Z,99984.16
2022-10-28T00:29:09.688Z,99987.88
2022-10-28T00:31:39.419Z,99988.03
2022-10-28T00:34:13.908Z,99987.22
2022-10-28T00:36:44.803Z,99989.97
2022-10-28T00:39:15.423Z,99984.31
2022-10-28T00:41:48.897Z,99992.00
2022-10-28T00:44:50.197Z,99988.56
2022-10-28T00:47:43.220Z,99983.47
2022-10-28T00:50:37.761Z,99987.06
2022-10-28T00:53:28.887Z,99988.19
2022-10-28T00:56:00.709Z,99985.19
2022-10-28T00:58:29.414Z,99985.34
2022-10-28T01:00:57.131Z,99982.75
2022-10-28T01:03:24.800Z,99977.50
2022-10-28T01:05:53.559Z,99976.00
2022-10-28T01:08:21.130Z,99972.19
2022-10-28T01:11:29.969Z,99973.81
2022-10-28T01:14:12.264Z,99977.25
2022-10-28T01:17:22.880Z,99974.50
2022-10-28T01:20:27.297Z,99974.19
2022-10-28T01:23:07.449Z,99967.31
2022-10-28T01:25:59.513Z,99967.75
2022-10-28T01:28:38.638Z,99962.41
2022-10-28T01:31:40.395Z,99964.03
2022-10-28T01:34:29.752Z,99968.97
2022-10-28T01:37:33.558Z,99961.44
2022-10-28T01:40:28.624Z,99950.97
2022-10-28T01:43:13.836Z,99942.28
2022-10-28T01:46:17.322Z,99942.41
2022-10-28T01:48:52.582Z,99945.50
2022-10-28T01:51:31.433Z,99943.84
2022-10-28T01:54:03.463Z,99945.03
2022-10-28T01:56:41.832Z,99936.53
2022-10-28T01:59:17.284Z,99937.06
2022-10-28T02:01:45.003Z,99929.34
2022-10-28T02:04:12.712Z,99932.50
2022-10-28T02:06:44.272Z,99931.97
2022-10-28T02:09:46.707Z,99937.06
2022-10-28T02:12:33.787Z,99930.69
2022-10-28T02:15:31.612Z,99935.25
2022-10-28T02:18:32.589Z,99928.41
2022-10-28T02:21:19.085Z,99930.69
2022-10-28T02:24:29.924Z,99932.66
2022-10-28T02:27:26.030Z,99930.41
2022-10-28T02:30:05.437Z,99934.66
2022-10-28T02:32:39.907Z,99929.72
2022-10-28T02:35:28.157Z,99923.16
2022-10-28T02:38:01.552Z,99926.88
2022-10-28T02:40:33.166Z,99933.25
2022-10-28T02:43:06.611Z,99929.13
2022-10-28T02:45:43.396Z,99929.94
2022-10-28T02:48:18.254Z,99924.28
2022-10-28T02:51:05.546Z,99916.59
2022-10-28T02:53:54.960Z,99922.63
2022-10-28T02:56:24.515Z,99919.47
2022-10-28T02:58:52.389Z,99918.50
2022-10-28T03:01:20.002Z,99915.88
2022-10-28T03:03:47.614Z,99918.16
2022-10-28T03:06:15.139Z,99923.00
2022-10-28T03:08:42.616Z,99923.84
2022-10-28T03:11:10.058Z,99920.41
2022-10-28T03:13:37.522Z,99919.72
2022-10-28T03:16:05.130Z,99927.19
2022-10-28T03:18:32.679Z,99923.09
2022-10-28T03:21:00.101Z,99920.91
2022-10-28T03:23:27.589Z,99928.91
2022-10-28T03:25:55.031Z,99929.66
2022-10-28T03:28:22.473Z,99929.66
2022-10-28T03:30:49.991Z,99928.97
2022-10-28T03:33:17.467Z,99927.88
2022-10-28T03:35:45.052Z,99924.94
2022-10-28T03:38:12.548Z,99922.03
2022-10-28T03:40:40.116Z,99925.47
2022-10-28T03:43:07.538Z,99934.97
2022-10-28T03:45:34.997Z,99931.81
2022-10-28T03:48:02.426Z,99927.88
2022-10-28T03:50:29.987Z,99930.47
2022-10-28T03:52:57.558Z,99938.00
2022-10-28T03:55:25.928Z,99934.41
2022-10-28T03:57:54.138Z,99936.38
2022-10-28T04:00:23.162Z,99933.09
2022-10-28T04:02:52.635Z,99934.53
2022-10-28T04:05:21.649Z,99939.06
2022-10-28T04:07:49.125Z,99944.28
2022-10-28T04:10:16.782Z,99945.56
2022-10-28T04:12:44.230Z,99945.69
2022-10-28T04:15:11.799Z,99944.88
2022-10-28T04:17:39.359Z,99941.16
2022-10-28T04:20:07.922Z,99948.63
2022-10-28T04:22:35.462Z,99940.09
2022-10-28T04:25:03.070Z,99939.97
2022-10-28T04:27:30.571Z,99947.81
2022-10-28T04:29:58.147Z,99943.41
2022-10-28T04:32:25.658Z,99947.25
2022-10-28T04:34:53.111Z,99946.72
2022-10-28T04:37:20.807Z,99949.91
2022-10-28T04:39:48.666Z,99946.66
2022-10-28T04:42:16.183Z,99938.59
2022-10-28T04:44:43.612Z,99944.63
2022-10-28T04:47:12.408Z,99944.69
2022-10-28T04:49:39.845Z,99937.97
2022-10-28T04:52:09.693Z,99952.28
2022-10-28T04:54:39.599Z,99942.13
2022-10-28T04:57:07.189Z,99943.22
2022-10-28T04:59:34.677Z,99946.28
2022-10-28T05:02:02.533Z,99942.00
2022-10-28T05:04:30.101Z,99938.72
2022-10-28T05:06:57.540Z,99946.41
2022-10-28T05:09:25.006Z,99939.41
2022-10-28T05:11:52.532Z,99948.22
2022-10-28T05:14:19.993Z,99943.66
2022-10-28T05:16:48.090Z,99951.50
2022-10-28T05:19:15.629Z,99946.41
2022-10-28T05:21:43.096Z,99949.44
2022-10-28T05:24:10.828Z,99955.56
2022-10-28T05:26:38.264Z,99957.63
2022-10-28T05:29:05.815Z,99958.09
2022-10-28T05:31:33.344Z,99956.38
2022-10-28T05:34:00.814Z,99959.41
2022-10-28T05:36:28.390Z,99954.97
2022-10-28T05:38:55.913Z,99957.78
2022-10-28T05:41:23.523Z,99958.25
2022-10-28T05:43:52.042Z,99957.78
2022-10-28T05:46:19.548Z,99952.09
2022-10-28T05:48:49.344Z,99950.63
2022-10-28T05:51:16.813Z,99957.13
2022-10-28T05:53:44.507Z,99967.97
2022-10-28T05:56:12.043Z,99968.63
2022-10-28T05:58:39.526Z,99965.47
2022-10-28T06:01:08.700Z,99950.28
2022-10-28T06:03:36.359Z,99958.06
2022-10-28T06:06:03.993Z,99964.47
2022-10-28T06:08:31.607Z,99967.88
2022-10-28T06:10:57.538Z,99966.19
2022-10-28T06:13:24.982Z,99967.34
2022-10-28T06:15:54.803Z,99973.47
2022-10-28T06:18:23.400Z,99960.50
2022-10-28T06:20:58.587Z,99962.91
2022-10-28T06:23:27.651Z,99975.53
2022-10-28T06:26:03.987Z,99971.22
2022-10-28T06:28:31.858Z,99976.09
2022-10-28T06:31:07.949Z,99976.75
2022-10-28T06:33:35.694Z,99972.91
2022-10-28T06:36:03.332Z,99977.38
2022-10-28T06:38:30.849Z,99975.34
2022-10-28T06:40:58.421Z,99975.41
2022-10-28T06:43:26.141Z,99976.97
2022-10-28T06:45:55.622Z,99977.19
2022-10-28T06:48:24.813Z,99975.59
2022-10-28T06:50:57.646Z,99986.53
2022-10-28T06:53:26.270Z,99979.78
2022-10-28T06:55:58.382Z,99973.84
2022-10-28T06:58:26.537Z,99980.69
2022-10-28T07:00:54.698Z,99981.25
2022-10-28T07:03:22.718Z,99986.69
2022-10-28T07:05:51.630Z,99993.78
2022-10-28T07:08:19.604Z,99979.88
2022-10-28T07:10:58.563Z,99974.47
2022-10-28T07:13:27.148Z,99974.94
2022-10-28T07:15:57.567Z,99976.97
2022-10-28T07:18:28.861Z,99973.56
2022-10-28T07:21:01.631Z,99962.38
2022-10-28T07:23:32.927Z,99968.63
2022-10-28T07:26:00.736Z,99965.47
2022-10-28T07:28:29.190Z,99963.41
2022-10-28T07:31:04.643Z,99961.78
2022-10-28T07:33:32.205Z,99962.41
2022-10-28T07:36:02.340Z,99955.09
2022-10-28T07:38:29.850Z,99955.59
2022-10-28T07:40:57.475Z,99965.34
2022-10-28T07:43:24.987Z,99959.06
2022-10-28T07:45:58.576Z,99966.34
2022-10-28T07:48:26.097Z,99976.00
2022-10-28T07:50:53.580Z,99971.03
2022-10-28T07:53:22.671Z,99963.94
2022-10-28T07:56:02.791Z,99975.31
2022-10-28T07:58:30.702Z,99965.41
2022-10-28T08:01:05.079Z,99951.25
2022-10-28T08:03:38.723Z,99955.06
2022-10-28T08:06:17.545Z,99945.25
2022-10-28T08:08:48.849Z,99955.75
2022-10-28T08:11:22.889Z,99936.25
2022-10-28T08:13:52.490Z,99929.38
2022-10-28T08:16:20.016Z,99954.44
2022-10-28T08:18:47.842Z,99953.13
2022-10-28T08:21:16.438Z,99945.03
2022-10-28T08:23:46.751Z,99938.03
2022-10-28T08:26:16.830Z,99933.38
2022-10-28T08:28:44.361Z,99937.22
2022-10-28T08:31:12.496Z,99924.97
2022-10-28T08:33:46.945Z,99918.03
2022-10-28T08:36:16.890Z,99949.91
2022-10-28T08:38:47.792Z,99933.69
2022-10-28T08:41:37.013Z,99915.97
2022-10-28T08:44:20.280Z,99917.53
2022-10-28T08:47:08.636Z,99925.53
2022-10-28T08:49:43.381Z,99908.53
2022-10-28T08:52:59.786Z,99928.63
2022-10-28T08:55:32.015Z,99929.13
2022-10-28T08:58:30.998Z,99924.59
2022-10-28T09:01:02.928Z,99922.72
2022-10-28T09:03:39.250Z,99906.34
2022-10-28T09:06:11.957Z,99900.22
2022-10-28T09:08:47.837Z,99903.34
2022-10-28T09:11:33.340Z,99894.09
2022-10-28T09:14:38.026Z,99898.44
2022-10-28T09:17:26.712Z,99908.88
2022-10-28T09:20:13.666Z,99927.25
2022-10-28T09:23:05.819Z,99921.63
2022-10-28T09:26:03.403Z,99908.16
2022-10-28T09:28:52.243Z,99889.25
2022-10-28T09:31:24.567Z,99904.88
2022-10-28T09:34:20.926Z,99906.88
2022-10-28T09:36:56.255Z,99897.28
2022-10-28T09:39:29.706Z,99910.47
2022-10-28T09:42:03.811Z,99922.25
2022-10-28T09:45:15.052Z,99888.28
2022-10-28T09:47:49.334Z,99897.00
2022-10-28T09:50:23.764Z,99889.59
2022-10-28T09:53:17.823Z,99899.25
2022-10-28T09:55:45.364Z,99894.84
2022-10-28T09:58:13.915Z,99880.00
2022-10-28T10:00:41.548Z,99900.31
2022-10-28T10:03:09.132Z,99888.25
2022-10-28T10:05:46.631Z,99897.56
2022-10-28T10:08:18.697Z,99900.84
2022-10-28T10:10:57.450Z,99863.94
2022-10-28T10:13:34.341Z,99862.69
2022-10-28T10:16:37.894Z,99895.75
2022-10-28T10:19:08.585Z,99885.41
2022-10-28T10:21:55.417Z,99847.28
2022-10-28T10:24:35.268Z,99862.47
2022-10-28T10:27:17.772Z,99871.25
2022-10-28T10:29:52.213Z,99887.59
2022-10-28T10:32:33.090Z,99883.06
2022-10-28T10:35:36.917Z,99869.56
2022-10-28T10:38:07.806Z,99879.50
2022-10-28T10:40:50.539Z,99875.50
2022-10-28T10:43:17.882Z,99851.44
2022-10-28T10:46:04.564Z,99853.69
2022-10-28T10:48:36.533Z,99866.03
2022-10-28T10:51:27.628Z,99870.66
2022-10-28T10:54:00.939Z,99851.03
2022-10-28T10:56:31.911Z,99864.38
2022-10-28T10:59:04.608Z,99835.47
2022-10-28T11:01:40.042Z,99849.81
2022-10-28T11:04:19.410Z,99865.09
2022-10-28T11:06:54.004Z,99852.53
2022-10-28T11:09:36.974Z,99841.03
2022-10-28T11:12:35.595Z,99844.19
2022-10-28T11:15:21.439Z,99854.66
2022-10-28T11:18:11.312Z,99848.31
2022-10-28T11:24:45.860Z,99840.09
2022-10-28T11:27:45.618Z,99841.72
2022-10-28T11:30:27.006Z,99831.53
2022-10-28T11:33:29.618Z,99827.22
2022-10-28T11:36:16.243Z,99833.56
2022-10-28T11:39:02.345Z,99802.97
2022-10-28T11:41:59.010Z,99817.50
2022-10-28T11:44:35.068Z,99818.97
2022-10-28T11:47:49.504Z,99808.41
2022-10-28T11:50:35.278Z,99815.44
2022-10-28T11:53:37.170Z,99807.34
2022-10-28T11:56:37.136Z,99800.41
2022-10-28T11:59:23.796Z,99819.69
2022-10-28T12:02:45.361Z,99811.28
2022-10-28T12:05:25.659Z,99808.09
2022-10-28T12:08:36.377Z,99814.19
2022-10-28T12:11:25.124Z,99814.78
2022-10-28T12:14:07.259Z,99811.88
2022-10-28T12:16:48.295Z,99818.28
2022-10-28T12:19:33.941Z,99803.16
2022-10-28T12:22:43.950Z,99810.34
2022-10-28T12:25:23.452Z,99801.75
2022-10-28T12:27:58.596Z,99807.19
2022-10-28T12:30:37.820Z,99806.88
2022-10-28T12:33:12.610Z,99798.78
2022-10-28T12:36:06.557Z,99796.22
2022-10-28T12:38:59.553Z,99797.09
2022-10-28T12:41:50.178Z,99786.97
2022-10-28T12:44:21.956Z,99794.38
2022-10-28T12:47:17.082Z,99788.22
2022-10-28T12:50:13.698Z,99789.00
2022-10-28T12:53:16.729Z,99780.91
2022-10-28T12:56:22.404Z,99779.50
2022-10-28T12:59:24.548Z,99780.31
2022-10-28T13:01:52.890Z,99780.03
2022-10-28T13:04:20.554Z,99781.19
2022-10-28T13:07:28.935Z,99784.25
2022-10-28T13:09:56.324Z,99772.47
2022-10-28T13:12:51.701Z,99770.56
2022-10-28T13:15:52.564Z,99781.69
2022-10-28T13:18:48.944Z,99768.13
2022-10-28T13:21:58.019Z,99772.78
2022-10-28T13:24:54.859Z,99765.88
2022-10-28T13:27:23.499Z,99768.97
2022-10-28T13:29:57.510Z,99776.31
2022-10-28T13:32:37.333Z,99771.38
2022-10-28T13:35:20.972Z,99769.13
2022-10-28T13:37:51.646Z,99772.31
2022-10-28T13:40:32.359Z,99772.03
2022-10-28T13:43:02.113Z,99774.28
2022-10-28T13:45:55.025Z,99780.34
2022-10-28T13:48:48.597Z,99779.63
2022-10-28T13:51:16.004Z,99780.25
2022-10-28T13:53:46.466Z,99789.09
2022-10-28T13:56:32.926Z,99780.50
2022-10-28T13:59:07.131Z,99787.28
2022-10-28T14:02:02.247Z,99776.75
2022-10-28T14:04:43.992Z,99788.41
2022-10-28T14:07:11.480Z,99786.38
2022-10-28T14:09:41.418Z,99795.13
2022-10-28T14:12:31.544Z,99788.47
2022-10-28T14:15:26.644Z,99780.94
2022-10-28T14:21:11.715Z,99778.91
2022-10-28T14:23:44.918Z,99783.19
2022-10-28T14:26:12.599Z,99785.88
2022-10-28T14:28:39.931Z,99787.31
2022-10-28T14:31:11.585Z,99782.25
2022-10-28T14:34:04.981Z,99791.19
2022-10-28T14:36:57.498Z,99789.38
2022-10-28T14:39:41.519Z,99784.91
2022-10-28T14:42:29.867Z,99786.94
2022-10-28T14:45:21.827Z,99790.84
2022-10-28T14:47:59.449Z,99787.31
2022-10-28T14:50:52.550Z,99790.97
2022-10-28T14:53:35.560Z,99799.53
2022-10-28T14:56:08.063Z,99791.56
2022-10-28T14:58:43.077Z,99798.44
2022-10-28T15:01:16.441Z,99807.53
2022-10-28T15:03:46.344Z,99801.19
2022-10-28T15:06:41.670Z,99807.88
2022-10-28T15:09:17.877Z,99803.31
2022-10-28T15:12:14.011Z,99804.06
2022-10-28T15:14:46.749Z,99816.97
2022-10-28T15:17:22.389Z,99821.34
2022-10-28T15:20:00.892Z,99817.16
2022-10-28T15:22:33.228Z,99817.66
2022-10-28T15:25:10.124Z,99814.13
2022-10-28T15:27:42.320Z,99823.66
2022-10-28T15:30:25.938Z,99809.75
2022-10-28T15:33:14.977Z,99820.63
2022-10-28T15:35:42.760Z,99817.06
2022-10-28T15:38:44.365Z,99818.16
2022-10-28T15:41:43.542Z,99823.94
2022-10-28T15:44:36.754Z,99820.78
2022-10-28T15:47:23.586Z,99829.03
2022-10-28T15:52:55.728Z,99832.22
2022-10-28T15:55:41.461Z,99832.69
2022-10-28T15:58:19.346Z,99832.13
2022-10-28T16:00:55.026Z,99832.69
2022-10-28T16:03:47.057Z,99831.16
2022-10-28T16:06:38.623Z,99832.53
2022-10-28T16:09:26.914Z,99829.13
2022-10-28T16:12:00.093Z,99829.53
2022-10-28T16:14:42.349Z,99834.25
2022-10-28T16:17:16.620Z,99839.50
2022-10-28T16:19:53.266Z,99837.47
2022-10-28T16:22:23.286Z,99832.03
2022-10-28T16:24:53.026Z,99844.38
2022-10-28T16:27:25.285Z,99838.56
2022-10-28T16:29:53.505Z,99844.59
2022-10-28T16:32:44.983Z,99839.88
2022-10-28T16:35:21.453Z,99844.19
2022-10-28T16:37:54.784Z,99848.66
2022-10-28T16:43:17.338Z,99860.50
2022-10-28T16:45:44.778Z,99854.03
2022-10-28T16:48:17.478Z,99859.97
2022-10-28T16:50:51.474Z,99860.50
2022-10-28T16:53:19.370Z,99860.19
2022-10-28T16:55:47.405Z,99869.59
2022-10-28T16:58:15.178Z,99863.22
2022-10-28T17:00:43.285Z,99870.44
2022-10-28T17:03:17.170Z,99872.72
2022-10-28T17:05:44.752Z,99870.78
2022-10-28T17:08:12.549Z,99872.44
2022-10-28T17:10:42.138Z,99865.22
2022-10-28T17:13:14.456Z,99872.03
2022-10-28T17:15:43.537Z,99879.41
2022-10-28T17:18:15.046Z,99877.31
2022-10-28T17:20:42.735Z,99883.91
2022-10-28T17:23:10.176Z,99882.63
2022-10-28T17:25:37.807Z,99887.72
2022-10-28T17:28:05.353Z,99891.16
2022-10-28T17:30:32.866Z,99886.06
2022-10-28T17:33:00.339Z,99885.41
2022-10-28T17:35:27.910Z,99891.81
2022-10-28T17:37:55.775Z,99889.34
2022-10-28T17:40:23.631Z,99886.72
2022-10-28T17:42:51.099Z,99887.22
2022-10-28T17:45:21.128Z,99889.19
2022-10-28T17:47:49.631Z,99883.63
2022-10-28T17:50:17.343Z,99887.25
2022-10-28T17:52:44.755Z,99885.41
2022-10-28T17:55:12.558Z,99879.50
2022-10-28T17:57:40.183Z,99877.88
2022-10-28T18:00:08.884Z,99882.31
2022-10-28T18:02:40.332Z,99882.81
2022-10-28T18:05:08.512Z,99886.09
2022-10-28T18:07:35.967Z,99880.81
2022-10-28T18:10:03.894Z,99881.81
2022-10-28T18:12:31.518Z,99880.81
2022-10-28T18:14:59.022Z,99868.81
2022-10-28T18:17:26.578Z,99876.47
2022-10-28T18:19:57.665Z,99875.19
2022-10-28T18:24:55.048Z,99868.13
2022-10-28T18:27:22.754Z,99875.56
2022-10-28T18:29:50.209Z,99876.56
2022-10-28T18:32:17.675Z,99875.88
2022-10-28T18:34:45.195Z,99869.00
2022-10-28T18:37:12.856Z,99870.47
2022-10-28T18:39:40.358Z,99874.91
2022-10-28T18:42:10.739Z,99879.69
2022-10-28T18:44:41.403Z,99873.31
2022-10-28T18:47:08.892Z,99864.81
2022-10-28T18:49:36.358Z,99864.81
2022-10-28T18:52:03.976Z,99862.84
2022-10-28T18:54:33.342Z,99871.72
2022-10-28T18:57:00.818Z,99875.31
2022-10-28T18:59:28.294Z,99880.56
2022-10-28T19:01:55.798Z,99878.75
2022-10-28T19:04:23.516Z,99878.09
2022-10-28T19:06:51.046Z,99872.19
2022-10-28T19:09:18.480Z,99868.72
2022-10-28T19:11:45.956Z,99874.13
2022-10-28T19:14:13.763Z,99870.84
2022-10-28T19:16:41.385Z,99880.16
2022-10-28T19:19:08.892Z,99878.19
2022-10-28T19:21:36.385Z,99881.16
2022-10-28T19:24:05.306Z,99878.19
2022-10-28T19:26:33.614Z,99886.69
2022-10-28T19:29:01.235Z,99880.66
2022-10-28T19:31:30.098Z,99891.59
2022-10-28T19:33:57.577Z,99888.00
2022-10-28T19:36:29.002Z,99886.06
2022-10-28T19:38:58.079Z,99894.06
2022-10-28T19:41:29.342Z,99890.13
2022-10-28T19:44:02.453Z,99883.22
2022-10-28T19:46:35.528Z,99884.69
2022-10-28T19:49:06.449Z,99893.53
2022-10-28T19:51:41.616Z,99886.94
2022-10-28T19:54:15.022Z,99900.06
2022-10-28T19:56:44.426Z,99884.34
2022-10-28T19:59:11.878Z,99888.91
2022-10-28T20:01:41.477Z,99890.22
2022-10-28T20:04:10.282Z,99892.47
2022-10-28T20:06:40.454Z,99892.13
2022-10-28T20:09:08.076Z,99892.13
2022-10-28T20:11:38.317Z,99894.13
2022-10-28T20:14:10.801Z,99890.19
2022-10-28T20:16:42.574Z,99893.56
2022-10-28T20:19:10.842Z,99890.94
2022-10-28T20:21:39.158Z,99888.16
2022-10-28T20:24:07.312Z,99898.25
2022-10-28T20:26:37.314Z,99897.06
2022-10-28T20:29:06.954Z,99897.22
2022-10-28T20:31:34.791Z,99894.09
2022-10-28T20:34:04.401Z,99895.25
2022-10-28T20:36:38.888Z,99891.94
2022-10-28T20:39:23.127Z,99885.06
2022-10-28T20:41:51.267Z,99889.47
2022-10-28T20:44:18.785Z,99883.72
2022-10-28T20:46:48.242Z,99879.78
2022-10-28T20:49:16.477Z,99884.34
2022-10-28T20:51:43.933Z,99885.50
2022-10-28T20:54:11.449Z,99884.97
2022-10-28T20:56:40.401Z,99884.97
2022-10-28T20:59:08.249Z,99879.72
2022-10-28T21:01:39.475Z,99878.91
2022-10-28T21:04:10.830Z,99880.88
2022-10-28T21:06:39.448Z,99873.31
2022-10-28T21:09:07.828Z,99883.13
2022-10-28T21:11:35.253Z,99882.00
2022-10-28T21:14:02.701Z,99886.25
2022-10-28T21:16:30.614Z,99880.81
2022-10-28T21:19:01.999Z,99880.69
2022-10-28T21:21:30.279Z,99873.78
2022-10-28T21:23:57.776Z,99873.28
2022-10-28T21:26:27.116Z,99871.28
2022-10-28T21:28:56.366Z,99873.38
2022-10-28T21:31:24.361Z,99864.38
2022-10-28T21:33:53.370Z,99862.91
2022-10-28T21:36:22.705Z,99861.44
2022-10-28T21:38:55.029Z,99862.88
2022-10-28T21:41:24.756Z,99857.75
2022-10-28T21:43:53.925Z,99860.72
2022-10-28T21:46:23.153Z,99865.78
2022-10-28T21:48:50.714Z,99862.34
2022-10-28T21:51:18.278Z,99870.00
2022-10-28T21:53:46.065Z,99865.56
2022-10-28T21:56:18.801Z,99867.06
2022-10-28T21:58:49.942Z,99863.25
2022-10-28T22:01:24.046Z,99857.84
2022-10-28T22:03:55.061Z,99862.28
2022-10-28T22:06:22.750Z,99859.53
2022-10-28T22:08:55.977Z,99858.22
2022-10-28T22:11:24.261Z,99855.47
2022-10-28T22:14:00.456Z,99863.44
2022-10-28T22:16:30.248Z,99863.31
2022-10-28T22:18:59.968Z,99865.81
2022-10-28T22:21:31.112Z,99863.88
2022-10-28T22:23:58.588Z,99864.34
2022-10-28T22:26:30.256Z,99868.44
2022-10-28T22:28:57.769Z,99865.00
2022-10-28T22:31:31.886Z,99870.03
2022-10-28T22:33:59.870Z,99872.53
2022-10-28T22:36:29.684Z,99869.94
2022-10-28T22:38:58.164Z,99866.81
2022-10-28T22:41:28.638Z,99868.28
2022-10-28T22:44:01.844Z,99870.88
2022-10-28T22:46:33.421Z,99871.91
2022-10-28T22:49:01.003Z,99878.09
2022-10-28T22:51:28.432Z,99877.47
2022-10-28T22:53:55.998Z,99869.91
2022-10-28T22:56:25.739Z,99878.28
2022-10-28T22:59:01.707Z,99872.03
2022-10-28T23:01:29.795Z,99885.38
2022-10-28T23:03:57.612Z,99880.63
2022-10-28T23:06:27.189Z,99882.13
2022-10-28T23:08:54.885Z,99880.09
2022-10-28T23:11:23.683Z,99879.97
2022-10-28T23:13:55.489Z,99879.34
2022-10-28T23:16:24.304Z,99872.50
2022-10-28T23:18:53.196Z,99887.59
2022-10-28T23:21:24.129Z,99879.63
2022-10-28T23:24:00.303Z,99882.13
2022-10-28T23:26:29.700Z,99885.97
2022-10-28T23:28:59.952Z,99888.84
2022-10-28T23:31:28.442Z,99888.72
2022-10-28T23:33:55.879Z,99884.56
2022-10-28T23:36:23.400Z,99881.56
2022-10-28T23:38:50.916Z,99883.28
2022-10-28T23:41:19.374Z,99882.06
2022-10-28T23:43:48.727Z,99880.56
2022-10-28T23:46:16.915Z,99882.94
2022-10-28T23:48:44.361Z,99875.09
2022-10-28T23:51:12.030Z,99878.53
2022-10-28T23:53:39.498Z,99876.16
2022-10-28T23:56:07.493Z,99873.31
2022-10-28T23:58:34.970Z,99876.03
